Time;durP1;ratioP1;P1;durP2;ratioP2;P2;SDS_P1;SDS_P2;PMS_P1;PMS_P2;Temp;Humidity;BMP_temperature;BMP_pressure;BME280_temperature;BME280_humidity;BME280_pressure;Samples;Min_cycle;Max_cycle;Signal;HPM_P1;HPM_P2
2022/10/18 00:01:15;;;;;;;11.10;8.10;;;;;;;13.86;74.55;101077.92;126858;1286;107516;-81
2022/10/18 00:04:22;;;;;;;9.20;7.70;;;;;;;13.74;74.62;101077.15;126947;1279;107538;-81
2022/10/18 00:07:27;;;;;;;11.60;7.50;;;;;;;13.63;74.54;101076.27;126914;1272;107598;-81
2022/10/18 00:10:32;;;;;;;11.50;7.90;;;;;;;13.54;74.82;101074.14;127114;1294;106560;-81
2022/10/18 00:13:38;;;;;;;8.60;6.40;;;;;;;13.47;74.86;101069.44;127180;1288;107541;-78
2022/10/18 00:16:44;;;;;;;10.00;6.50;;;;;;;13.43;74.82;101068.77;126918;1279;107484;-79
2022/10/18 00:19:49;;;;;;;9.10;6.70;;;;;;;13.43;74.75;101065.58;126960;1272;107539;-79
2022/10/18 00:22:55;;;;;;;10.20;7.00;;;;;;;13.42;74.91;101067.08;126888;1288;107285;-79
2022/10/18 00:26:07;;;;;;;9.30;7.60;;;;;;;13.42;74.75;101064.59;127010;1276;106636;-79
2022/10/18 00:29:15;;;;;;;9.80;7.60;;;;;;;13.40;74.69;101063.88;127199;1278;109196;-79
2022/10/18 00:32:20;;;;;;;8.30;6.60;;;;;;;13.37;74.72;101060.63;127192;1272;107500;-79
2022/10/18 00:35:26;;;;;;;10.00;7.60;;;;;;;13.31;74.86;101057.71;127054;1286;107510;-79
2022/10/18 00:38:32;;;;;;;7.80;6.70;;;;;;;13.29;74.90;101057.97;126948;1281;107511;-80
2022/10/18 00:41:38;;;;;;;8.20;7.00;;;;;;;13.24;74.72;101051.67;127019;1286;107573;-80
2022/10/18 00:45:17;;;;;;;9.70;7.30;;;;;;;13.20;75.05;101049.39;127245;1279;107397;-80
2022/10/18 00:48:24;;;;;;;7.70;5.70;;;;;;;13.15;75.00;101043.91;126540;1285;106741;-78
2022/10/18 00:51:36;;;;;;;7.60;5.30;;;;;;;13.15;75.03;101041.23;126368;1281;107593;-79
2022/10/18 00:54:45;;;;;;;9.10;5.70;;;;;;;13.20;75.19;101039.56;126859;1279;107399;-80
2022/10/18 00:57:51;;;;;;;7.60;5.80;;;;;;;13.25;75.02;101035.48;127103;1278;107390;-79
2022/10/18 01:00:57;;;;;;;8.40;6.00;;;;;;;13.30;75.04;101038.19;127007;1279;107297;-80
2022/10/18 01:04:02;;;;;;;9.20;6.10;;;;;;;13.33;75.00;101030.56;126949;1279;107576;-79
2022/10/18 01:07:19;;;;;;;7.40;5.90;;;;;;;13.34;75.00;101024.89;126905;1279;107379;-79
2022/10/18 01:10:30;;;;;;;9.00;6.20;;;;;;;13.34;74.95;101022.80;126985;1279;109233;-78
2022/10/18 01:13:49;;;;;;;8.10;6.20;;;;;;;13.32;74.80;101022.65;126838;1278;107382;-79
2022/10/18 01:17:00;;;;;;;7.40;5.50;;;;;;;13.30;75.00;101022.65;126841;1286;106264;-79
2022/10/18 01:20:39;;;;;;;6.70;4.90;;;;;;;13.27;75.02;101017.44;126849;1279;107485;-78
2022/10/18 01:24:27;;;;;;;7.40;5.20;;;;;;;13.24;75.15;101019.88;126881;1286;107397;-82
2022/10/18 01:27:48;;;;;;;8.10;5.50;;;;;;;13.25;75.03;101023.63;126502;1292;107550;-79
2022/10/18 01:30:58;;;;;;;6.60;5.40;;;;;;;13.29;75.00;101022.37;126812;1279;107427;-79
2022/10/18 01:34:08;;;;;;;7.50;5.60;;;;;;;13.31;74.77;101022.17;126793;1272;108028;-79
2022/10/18 01:37:17;;;;;;;8.90;5.70;;;;;;;13.33;74.76;101017.56;126780;1274;107291;-79
2022/10/18 01:40:24;;;;;;;8.30;5.10;;;;;;;13.33;74.85;101017.19;126871;1281;107281;-79
2022/10/18 01:43:32;;;;;;;6.90;5.90;;;;;;;13.31;74.88;101017.55;126836;1279;107492;-79
2022/10/18 01:46:39;;;;;;;8.90;6.00;;;;;;;13.28;74.93;101017.48;126811;1279;107529;-79
2022/10/18 01:49:45;;;;;;;9.70;5.70;;;;;;;13.27;74.83;101016.88;126824;1288;106295;-79
2022/10/18 01:52:51;;;;;;;8.40;5.70;;;;;;;13.25;74.81;101018.36;126846;1279;107714;-79
2022/10/18 01:56:18;;;;;;;6.60;5.10;;;;;;;13.22;74.82;101011.84;126810;1272;107497;-79
2022/10/18 01:59:45;;;;;;;9.30;6.40;;;;;;;13.24;74.90;101009.44;126978;1279;107337;-79
2022/10/18 02:02:56;;;;;;;8.40;5.10;;;;;;;13.28;74.93;101006.56;126787;1279;107663;-75
2022/10/18 02:06:10;;;;;;;7.50;5.30;;;;;;;13.32;74.83;101004.23;126825;1272;106498;-75
2022/10/18 02:09:22;;;;;;;6.90;5.70;;;;;;;13.34;74.78;100999.58;126785;1286;107315;-75
2022/10/18 02:12:32;;;;;;;7.60;6.00;;;;;;;13.33;74.86;100996.55;126786;1275;107532;-74
2022/10/18 02:15:41;;;;;;;6.50;5.30;;;;;;;13.33;74.78;100995.89;126789;1278;107474;-74
2022/10/18 02:18:55;;;;;;;7.90;5.60;;;;;;;13.32;74.77;100998.15;126974;1289;107159;-74
2022/10/18 02:22:03;;;;;;;7.80;6.00;;;;;;;13.30;74.59;101002.63;127057;1278;107485;-76
2022/10/18 02:25:16;;;;;;;5.90;4.70;;;;;;;13.27;74.72;101002.18;127062;1279;107568;-74
2022/10/18 02:28:22;;;;;;;6.70;4.90;;;;;;;13.26;74.72;101003.79;126985;1279;107583;-76
2022/10/18 02:31:33;;;;;;;7.10;5.00;;;;;;;13.26;74.77;100999.30;127149;1278;107486;-74
2022/10/18 02:34:41;;;;;;;6.90;4.90;;;;;;;13.28;74.72;100999.98;127050;1281;107399;-74
2022/10/18 02:37:49;;;;;;;6.70;5.40;;;;;;;13.30;74.64;101001.39;127032;1280;106605;-76
2022/10/18 02:40:55;;;;;;;7.80;5.20;;;;;;;13.31;74.67;101001.60;126948;1286;107445;-75
2022/10/18 02:44:00;;;;;;;6.30;5.00;;;;;;;13.32;74.42;100996.02;126935;1278;106594;-74
2022/10/18 02:47:09;;;;;;;7.20;5.50;;;;;;;13.32;74.53;100997.32;127061;1281;107300;-76
2022/10/18 02:50:15;;;;;;;8.20;5.80;;;;;;;13.30;74.52;101004.36;127194;1278;107294;-76
2022/10/18 02:53:20;;;;;;;6.20;5.20;;;;;;;13.28;74.49;101002.42;126927;1285;107215;-75
2022/10/18 02:56:26;;;;;;;6.80;5.40;;;;;;;13.26;74.52;101006.11;127068;1279;107527;-76
2022/10/18 02:59:31;;;;;;;7.20;4.40;;;;;;;13.20;74.44;101008.39;127056;1279;107477;-73
2022/10/18 03:02:37;;;;;;;5.10;4.10;;;;;;;13.18;74.55;101014.36;127069;1279;108120;-73
2022/10/18 03:05:42;;;;;;;6.00;4.70;;;;;;;13.18;74.59;101006.83;127104;1272;107541;-74
2022/10/18 03:08:47;;;;;;;7.50;5.10;;;;;;;13.20;74.43;101004.84;127384;1279;107412;-74
2022/10/18 03:11:53;;;;;;;6.10;4.80;;;;;;;13.22;74.32;101000.73;127189;1278;107317;-72
2022/10/18 03:14:58;;;;;;;6.10;5.30;;;;;;;13.23;74.35;101001.77;127010;1286;107532;-73
2022/10/18 03:18:04;;;;;;;7.60;5.00;;;;;;;13.23;74.37;101001.02;127218;1278;107393;-72
2022/10/18 03:21:10;;;;;;;6.70;5.90;;;;;;;13.21;74.45;100998.33;127020;1279;107277;-72
2022/10/18 03:24:16;;;;;;;6.90;5.30;;;;;;;13.18;74.45;101001.17;126792;1279;107525;-73
2022/10/18 03:27:21;;;;;;;7.70;5.40;;;;;;;13.14;74.36;100996.88;127214;1272;107522;-72
2022/10/18 03:30:27;;;;;;;7.90;5.80;;;;;;;13.11;74.53;101003.98;127199;1285;107360;-73
2022/10/18 03:33:33;;;;;;;6.80;4.60;;;;;;;13.08;74.42;101003.08;127165;1279;107633;-72
2022/10/18 03:36:40;;;;;;;6.80;5.00;;;;;;;13.06;74.58;101003.08;127197;1286;107651;-72
2022/10/18 03:39:45;;;;;;;6.70;5.20;;;;;;;13.07;74.59;101004.23;127161;1279;106409;-72
2022/10/18 03:42:51;;;;;;;7.70;5.00;;;;;;;13.09;74.51;101004.70;127111;1279;107525;-72
2022/10/18 03:45:56;;;;;;;8.70;5.40;;;;;;;13.10;74.33;101001.75;126969;1286;107366;-72
2022/10/18 03:49:01;;;;;;;8.60;5.40;;;;;;;13.11;74.67;101006.52;126900;1286;107522;-72
2022/10/18 03:52:07;;;;;;;8.10;5.60;;;;;;;13.08;74.47;101008.94;127009;1278;107495;-72
2022/10/18 03:55:12;;;;;;;6.10;5.40;;;;;;;13.05;74.45;101012.59;126906;1278;107459;-74
2022/10/18 03:58:17;;;;;;;7.00;5.20;;;;;;;13.03;74.38;101010.68;126885;1279;107465;-75
2022/10/18 04:01:23;;;;;;;7.60;5.90;;;;;;;12.98;74.46;101002.73;126970;1278;107311;-72
2022/10/18 04:04:28;;;;;;;8.60;5.60;;;;;;;12.94;74.48;101001.38;126922;1279;107330;-72
2022/10/18 04:07:34;;;;;;;6.90;5.10;;;;;;;12.89;74.61;100998.04;126858;1272;106372;-75
2022/10/18 04:10:40;;;;;;;7.30;5.50;;;;;;;12.86;74.48;100994.82;126950;1282;107178;-73
2022/10/18 04:13:45;;;;;;;7.50;5.20;;;;;;;12.86;74.57;101006.75;126854;1284;105595;-73
2022/10/18 04:16:51;;;;;;;6.40;5.20;;;;;;;12.88;74.42;101006.71;126844;1286;107459;-74
2022/10/18 04:19:56;;;;;;;8.70;6.00;;;;;;;12.89;74.37;100999.70;126852;1279;107537;-73
2022/10/18 04:23:01;;;;;;;7.90;5.70;;;;;;;12.90;74.58;101003.65;126938;1278;107429;-73
2022/10/18 04:26:07;;;;;;;8.40;5.30;;;;;;;12.89;74.47;101011.13;126908;1279;107513;-73
2022/10/18 04:29:12;;;;;;;8.30;6.00;;;;;;;12.86;74.54;101015.66;126923;1279;107283;-73
2022/10/18 04:32:18;;;;;;;6.50;5.70;;;;;;;12.83;74.55;101002.02;126994;1293;107514;-72
2022/10/18 04:35:24;;;;;;;7.50;6.10;;;;;;;12.78;74.57;101006.25;126848;1279;107704;-74
2022/10/18 04:38:30;;;;;;;8.40;5.40;;;;;;;12.73;74.58;101013.55;126999;1278;107493;-73
2022/10/18 04:41:36;;;;;;;6.10;5.00;;;;;;;12.68;74.69;101013.36;126919;1279;107319;-73
2022/10/18 04:44:41;;;;;;;6.20;4.80;;;;;;;12.65;74.71;101012.75;126946;1294;107444;-73
2022/10/18 04:47:46;;;;;;;5.90;4.80;;;;;;;12.63;74.65;101014.39;126937;1279;107538;-73
2022/10/18 04:50:52;;;;;;;6.50;5.50;;;;;;;12.62;74.73;101011.74;126920;1279;107349;-76
2022/10/18 04:53:58;;;;;;;8.30;6.00;;;;;;;12.60;74.79;101009.48;127122;1285;107543;-74
2022/10/18 04:57:03;;;;;;;8.50;6.00;;;;;;;12.57;74.89;101004.75;126950;1279;107509;-73
2022/10/18 05:00:10;;;;;;;7.90;5.70;;;;;;;12.53;74.81;101008.34;126845;1278;107638;-72
2022/10/18 05:03:16;;;;;;;8.00;5.80;;;;;;;12.47;74.81;101010.20;126968;1279;107397;-73
2022/10/18 05:06:22;;;;;;;7.00;6.00;;;;;;;12.42;74.90;101009.96;126974;1278;107446;-73
2022/10/18 05:09:27;;;;;;;6.40;5.30;;;;;;;12.36;75.00;101006.95;126977;1278;105548;-73
2022/10/18 05:12:33;;;;;;;7.70;5.70;;;;;;;12.28;74.96;101003.02;127064;1278;107617;-73
2022/10/18 05:15:38;;;;;;;7.00;5.30;;;;;;;12.21;75.20;101011.95;126901;1279;107499;-73
2022/10/18 05:18:43;;;;;;;5.90;4.80;;;;;;;12.17;75.16;101016.55;126828;1285;107383;-73
2022/10/18 05:21:49;;;;;;;8.30;5.30;;;;;;;12.17;75.04;101012.81;126961;1286;107536;-73
2022/10/18 05:24:54;;;;;;;10.50;5.90;;;;;;;12.21;75.26;101009.08;126980;1278;107611;-74
2022/10/18 05:28:00;;;;;;;10.00;5.80;;;;;;;12.24;75.17;101013.58;126959;1272;108737;-73
2022/10/18 05:31:07;;;;;;;7.80;6.30;;;;;;;12.28;75.24;101016.46;126958;1275;107490;-73
2022/10/18 05:34:12;;;;;;;8.60;6.10;;;;;;;12.29;75.22;101017.73;126841;1275;107194;-73
2022/10/18 05:37:17;;;;;;;8.80;6.60;;;;;;;12.30;75.14;101020.85;126980;1279;107345;-75
2022/10/18 05:40:23;;;;;;;7.10;6.10;;;;;;;12.31;75.19;101018.60;126885;1278;107537;-74
2022/10/18 05:43:30;;;;;;;7.90;5.90;;;;;;;12.36;75.35;101019.59;126941;1276;107587;-74
2022/10/18 05:46:36;;;;;;;7.00;5.50;;;;;;;12.41;75.34;101023.77;126981;1280;107502;-73
2022/10/18 05:49:41;;;;;;;7.20;5.10;;;;;;;12.47;75.47;101026.04;126911;1279;107493;-73
2022/10/18 05:52:46;;;;;;;9.70;5.40;;;;;;;12.55;75.45;101028.34;126828;1279;107505;-73
2022/10/18 05:55:52;;;;;;;7.90;5.60;;;;;;;12.64;75.42;101030.45;126811;1278;107399;-74
2022/10/18 05:58:57;;;;;;;7.30;5.90;;;;;;;12.74;75.39;101024.17;127061;1279;107343;-74
2022/10/18 06:02:02;;;;;;;9.20;6.70;;;;;;;12.85;75.36;101027.41;127167;1285;107530;-74
2022/10/18 06:05:08;;;;;;;9.40;7.20;;;;;;;12.96;75.31;101026.85;127159;1282;107541;-73
2022/10/18 06:08:14;;;;;;;9.60;6.70;;;;;;;13.06;75.28;101025.55;127153;1272;107571;-76
2022/10/18 06:11:20;;;;;;;8.30;6.70;;;;;;;13.13;75.02;101027.66;127223;1285;107444;-69
2022/10/18 06:14:25;;;;;;;8.70;6.80;;;;;;;13.23;75.18;101030.19;126946;1292;107333;-70
2022/10/18 06:17:31;;;;;;;9.00;6.50;;;;;;;13.30;75.11;101032.70;126899;1279;108616;-69
2022/10/18 06:20:36;;;;;;;8.50;5.80;;;;;;;13.37;74.95;101036.31;126869;1278;107904;-72
2022/10/18 06:23:42;;;;;;;9.40;5.70;;;;;;;13.45;74.98;101041.75;126802;1278;107832;-72
2022/10/18 06:26:48;;;;;;;6.80;5.70;;;;;;;13.56;75.13;101046.70;127221;1280;106550;-71
2022/10/18 06:29:53;;;;;;;9.60;6.00;;;;;;;13.69;74.84;101048.66;127120;1280;107449;-70
2022/10/18 06:33:01;;;;;;;10.10;6.60;;;;;;;13.82;74.70;101046.80;127638;1279;108166;-71
2022/10/18 06:36:11;;;;;;;10.40;6.40;;;;;;;13.93;74.80;101041.54;127601;1278;107087;-72
2022/10/18 06:39:16;;;;;;;11.40;6.50;;;;;;;14.05;74.55;101040.38;127069;1286;107319;-72
2022/10/18 06:42:21;;;;;;;8.40;6.20;;;;;;;14.13;74.52;101041.50;127030;1279;107393;-72
2022/10/18 06:45:27;;;;;;;9.50;7.30;;;;;;;14.20;74.48;101042.42;126932;1279;107518;-72
2022/10/18 06:48:33;;;;;;;8.80;6.00;;;;;;;14.26;74.48;101043.60;127199;1280;107983;-72
2022/10/18 06:51:39;;;;;;;10.10;6.40;;;;;;;14.33;74.29;101039.80;127083;1285;107588;-71
2022/10/18 06:54:44;;;;;;;9.20;6.00;;;;;;;14.41;74.35;101045.68;127035;1284;107613;-72
2022/10/18 06:57:50;;;;;;;7.70;5.90;;;;;;;14.47;74.29;101044.13;127208;1279;107634;-74
2022/10/18 07:00:55;;;;;;;8.60;5.70;;;;;;;14.54;74.25;101041.46;126916;1286;107486;-72
2022/10/18 07:04:00;;;;;;;7.70;5.20;;;;;;;14.63;74.29;101038.61;126903;1286;107488;-74
2022/10/18 07:07:06;;;;;;;9.40;5.30;;;;;;;14.74;74.22;101038.66;126907;1295;107503;-72
2022/10/18 07:10:12;;;;;;;7.10;5.50;;;;;;;14.85;74.15;101033.31;126983;1284;107577;-78
2022/10/18 07:13:17;;;;;;;8.90;5.80;;;;;;;14.99;74.07;101035.88;127262;1285;107990;-73
2022/10/18 07:16:22;;;;;;;7.30;5.50;;;;;;;15.09;73.90;101030.33;127219;1278;107705;-76
2022/10/18 07:19:28;;;;;;;9.70;6.80;;;;;;;15.20;73.72;101032.41;127080;1286;107521;-75
2022/10/18 07:22:36;;;;;;;9.80;6.50;;;;;;;15.28;73.94;101035.81;127071;1272;107454;-70
2022/10/18 07:25:43;;;;;;;10.40;6.60;;;;;;;15.36;73.61;101035.20;127036;1286;108083;-74
2022/10/18 07:28:50;;;;;;;10.70;6.10;;;;;;;15.42;73.65;101033.63;127047;1286;108335;-73
2022/10/18 07:31:56;;;;;;;9.60;6.20;;;;;;;15.48;73.57;101032.55;127028;1272;107219;-73
2022/10/18 07:35:01;;;;;;;8.20;6.40;;;;;;;15.53;73.49;101034.72;127170;1280;107516;-73
2022/10/18 07:38:07;;;;;;;8.60;6.50;;;;;;;15.59;73.39;101026.39;127240;1272;107518;-73
2022/10/18 07:41:13;;;;;;;8.40;6.30;;;;;;;15.65;73.37;101018.02;127122;1286;107506;-72
2022/10/18 07:44:19;;;;;;;11.70;7.40;;;;;;;15.72;73.41;101014.37;127162;1284;107508;-72
2022/10/18 07:47:24;;;;;;;10.60;5.70;;;;;;;15.76;73.21;101008.09;127050;1286;107522;-73
2022/10/18 07:50:29;;;;;;;7.40;5.70;;;;;;;15.85;73.21;101016.80;126954;1279;107540;-73
2022/10/18 07:53:35;;;;;;;9.00;6.00;;;;;;;15.94;72.94;101025.85;126972;1279;107397;-75
2022/10/18 07:56:42;;;;;;;8.50;6.20;;;;;;;16.02;72.80;101025.23;126903;1285;107448;-74
2022/10/18 07:59:51;;;;;;;8.70;6.60;;;;;;;16.12;72.86;101017.41;127035;1279;107480;-73
2022/10/18 08:02:59;;;;;;;11.90;7.20;;;;;;;16.18;72.73;101004.82;126999;1278;107263;-71
2022/10/18 08:06:07;;;;;;;9.90;6.90;;;;;;;16.25;72.71;101002.42;126997;1288;107370;-72
2022/10/18 08:09:13;;;;;;;8.80;6.50;;;;;;;16.32;72.68;100998.42;126936;1285;107400;-72
2022/10/18 08:12:18;;;;;;;8.30;6.50;;;;;;;16.39;72.72;100994.84;126850;1283;107341;-69
2022/10/18 08:15:24;;;;;;;10.20;6.70;;;;;;;16.46;72.63;100993.29;126862;1278;108124;-71
2022/10/18 08:18:30;;;;;;;9.30;6.40;;;;;;;16.53;72.53;100999.34;126927;1286;106326;-71
2022/10/18 08:21:35;;;;;;;8.30;6.60;;;;;;;16.60;72.48;101000.90;126967;1286;107045;-71
2022/10/18 08:24:41;;;;;;;8.40;6.60;;;;;;;16.68;72.57;100999.24;127000;1286;107394;-72
2022/10/18 08:27:46;;;;;;;10.40;7.20;;;;;;;16.77;72.19;100993.34;127027;1276;107342;-71
2022/10/18 08:30:52;;;;;;;9.90;7.10;;;;;;;16.86;72.27;100989.32;126852;1284;107344;-71
2022/10/18 08:33:58;;;;;;;9.70;7.00;;;;;;;16.97;72.22;100986.98;126911;1279;107371;-72
2022/10/18 08:37:04;;;;;;;11.40;8.20;;;;;;;17.07;71.64;100985.39;126918;1272;107361;-71
2022/10/18 08:40:12;;;;;;;12.30;8.80;;;;;;;17.14;71.50;100981.00;126924;1284;107556;-76
2022/10/18 08:43:27;;;;;;;12.80;9.30;;;;;;;17.24;70.78;100981.85;126908;1286;107480;-74
2022/10/18 08:46:34;;;;;;;12.20;9.40;;;;;;;17.33;71.06;100980.69;126835;1283;107493;-74
2022/10/18 08:49:44;;;;;;;15.50;9.00;;;;;;;17.41;70.91;100983.23;126939;1296;107568;-72
2022/10/18 08:52:57;;;;;;;12.20;8.90;;;;;;;17.50;71.24;100984.94;126914;1272;107505;-73
2022/10/18 08:56:10;;;;;;;14.40;10.40;;;;;;;17.60;70.88;100985.65;126861;1279;107395;-73
2022/10/18 08:59:15;;;;;;;15.00;11.10;;;;;;;17.67;70.88;100983.44;126898;1278;107954;-72
2022/10/18 09:02:40;;;;;;;17.10;11.10;;;;;;;17.74;70.73;100984.23;126945;1283;107532;-73
2022/10/18 09:05:50;;;;;;;16.60;11.70;;;;;;;17.81;70.73;100978.19;126922;1285;108675;-72
2022/10/18 09:09:05;;;;;;;16.70;11.30;;;;;;;17.84;69.76;100976.82;126871;1285;108036;-72
2022/10/18 09:12:41;;;;;;;14.10;10.50;;;;;;;17.86;70.24;100971.39;127003;1284;107263;-72
2022/10/18 09:15:54;;;;;;;13.70;11.10;;;;;;;17.89;70.41;100970.11;127619;1296;107528;-72
2022/10/18 09:19:06;;;;;;;15.50;10.80;;;;;;;17.88;70.34;100975.92;127037;1286;105447;-72
2022/10/18 09:22:12;;;;;;;;;;;;;;;17.83;70.37;100977.04;127017;1300;107369;-73
2022/10/18 09:25:20;;;;;;;15.00;11.50;;;;;;;17.82;70.35;100973.99;127134;1278;107430;-73
2022/10/18 09:28:37;;;;;;;17.70;13.20;;;;;;;17.76;69.55;100973.08;127168;1278;107548;-72
2022/10/18 09:31:49;;;;;;;14.60;11.90;;;;;;;17.64;69.15;100973.21;127240;1279;107244;-71
2022/10/18 09:35:01;;;;;;;16.10;11.30;;;;;;;17.59;69.61;100970.52;126927;1291;107452;-72
2022/10/18 09:38:13;;;;;;;14.70;11.00;;;;;;;17.62;70.31;100963.67;127133;1284;107472;-71
2022/10/18 09:41:19;;;;;;;;;;;;;;;17.73;70.08;100953.51;127051;1289;107374;-71
2022/10/18 09:44:28;;;;;;;12.10;9.00;;;;;;;17.84;70.27;100947.60;127229;1285;107422;-72
2022/10/18 09:47:41;;;;;;;15.00;10.90;;;;;;;17.99;70.08;100945.06;127145;1278;107361;-71
2022/10/18 09:50:50;;;;;;;15.10;11.10;;;;;;;18.06;69.22;100946.65;126962;1292;107470;-72
2022/10/18 09:54:13;;;;;;;16.80;13.00;;;;;;;18.06;69.54;100940.57;126965;1279;106391;-72
2022/10/18 09:57:27;;;;;;;17.90;11.80;;;;;;;18.04;69.17;100936.98;127189;1287;107638;-71
2022/10/18 10:00:34;;;;;;;17.20;11.60;;;;;;;18.02;69.62;100930.70;127254;1278;106301;-72
2022/10/18 10:03:41;;;;;;;14.90;11.90;;;;;;;18.08;69.67;100925.73;127261;1286;106258;-72
2022/10/18 10:06:53;;;;;;;15.50;12.00;;;;;;;18.16;69.72;100922.03;127121;1283;107567;-73
2022/10/18 10:10:06;;;;;;;16.70;12.20;;;;;;;18.26;69.65;100916.50;127202;1276;107285;-70
2022/10/18 10:13:21;;;;;;;16.20;12.40;;;;;;;18.30;69.41;100907.51;127280;1286;107832;-72
2022/10/18 10:16:28;;;;;;;18.00;13.60;;;;;;;18.35;69.59;100902.95;126759;1286;107349;-71
2022/10/18 10:19:36;;;;;;;15.20;12.70;;;;;;;18.43;69.72;100902.65;126871;1283;107507;-72
2022/10/18 10:22:46;;;;;;;18.50;13.20;;;;;;;18.54;69.61;100896.88;126956;1291;108070;-71
2022/10/18 10:25:55;;;;;;;14.60;11.50;;;;;;;18.65;69.59;100894.34;126879;1286;107417;-71
2022/10/18 10:29:01;;;;;;;16.80;12.00;;;;;;;18.82;69.60;100890.64;126951;1278;107515;-71
2022/10/18 10:32:12;;;;;;;16.00;12.80;;;;;;;18.94;69.05;100884.98;126891;1284;107343;-70
2022/10/18 10:35:31;;;;;;;17.80;13.00;;;;;;;18.91;67.16;100877.55;126901;1292;108088;-70
2022/10/18 10:38:37;;;;;;;17.40;12.40;;;;;;;18.77;68.75;100874.30;126698;1284;218629;-70
2022/10/18 10:41:42;;;;;;;16.80;12.20;;;;;;;18.78;69.04;100875.68;126730;1292;108152;-71
2022/10/18 10:44:55;;;;;;;16.80;12.10;;;;;;;18.86;68.73;100868.60;126960;1278;107359;-72
2022/10/18 10:48:07;;;;;;;15.30;11.80;;;;;;;18.94;69.05;100863.23;127022;1280;107518;-71
2022/10/18 10:51:12;;;;;;;;;;;;;;;19.09;69.11;100854.74;126968;1282;105756;-71
2022/10/18 10:54:21;;;;;;;15.60;10.20;;;;;;;19.20;68.74;100851.27;126802;1278;107276;-72
2022/10/18 10:57:29;;;;;;;17.70;10.60;;;;;;;19.31;68.78;100853.98;126843;1291;107110;-73
2022/10/18 11:00:41;;;;;;;14.00;11.50;;;;;;;19.43;68.93;100844.55;127058;1299;107478;-72
2022/10/18 11:03:49;;;;;;;15.20;12.40;;;;;;;19.58;68.69;100839.08;126926;1278;107452;-72
2022/10/18 11:07:06;;;;;;;13.50;11.50;;;;;;;19.66;68.57;100834.04;126955;1284;106686;-70
2022/10/18 11:10:17;;;;;;;17.80;13.50;;;;;;;19.71;68.64;100829.63;127014;1284;107465;-71
2022/10/18 11:13:45;;;;;;;21.90;12.30;;;;;;;19.65;67.09;100824.79;127057;1285;107399;-71
2022/10/18 11:16:58;;;;;;;15.50;13.10;;;;;;;19.53;67.26;100824.13;126859;1280;105444;-70
2022/10/18 11:20:23;;;;;;;16.40;12.60;;;;;;;19.43;67.25;100819.39;126819;1283;107883;-70
2022/10/18 11:23:32;;;;;;;16.10;13.50;;;;;;;19.38;67.34;100817.61;126939;1285;106819;-77
2022/10/18 11:26:50;;;;;;;16.80;13.10;;;;;;;19.31;66.96;100819.88;127198;1286;108019;-71
2022/10/18 11:30:14;;;;;;;17.10;13.50;;;;;;;19.20;66.58;100816.80;127083;1290;107598;-71
2022/10/18 11:33:29;;;;;;;15.00;12.50;;;;;;;19.18;67.18;100817.87;127013;1280;105660;-72
2022/10/18 11:36:46;;;;;;;14.90;12.10;;;;;;;19.23;67.58;100811.08;127119;1279;106898;-72
2022/10/18 11:40:03;;;;;;;13.70;11.60;;;;;;;19.29;67.58;100800.27;127247;1280;107309;-71
2022/10/18 11:43:18;;;;;;;16.70;12.90;;;;;;;19.38;67.55;100796.00;127026;1278;107477;-72
2022/10/18 11:46:38;;;;;;;16.30;12.50;;;;;;;19.44;67.55;100789.02;127012;1288;107546;-72
2022/10/18 11:50:03;;;;;;;15.30;12.30;;;;;;;19.56;67.75;100779.71;127010;1279;106803;-72
2022/10/18 11:53:23;;;;;;;16.20;12.50;;;;;;;19.61;67.69;100770.08;127830;1286;106886;-73
2022/10/18 11:56:33;;;;;;;16.60;13.30;;;;;;;19.63;67.61;100768.92;127163;1280;107508;-76
2022/10/18 11:59:47;;;;;;;17.20;14.40;;;;;;;19.62;67.32;100763.66;127202;1285;107369;-71
2022/10/18 12:03:12;;;;;;;16.90;13.40;;;;;;;19.55;66.94;100756.92;127192;1285;106042;-72
2022/10/18 12:06:21;;;;;;;15.90;13.00;;;;;;;19.54;67.38;100743.54;127144;1284;107492;-70
2022/10/18 12:09:34;;;;;;;17.60;13.40;;;;;;;19.59;67.57;100738.91;127164;1278;108662;-70
2022/10/18 12:12:50;;;;;;;15.70;13.60;;;;;;;19.66;67.47;100737.86;127150;1278;107533;-70
2022/10/18 12:15:57;;;;;;;17.60;13.90;;;;;;;19.71;67.41;100728.53;127110;1283;108003;-70
2022/10/18 12:19:05;;;;;;;15.10;13.10;;;;;;;19.75;67.10;100726.81;126787;1280;108122;-70
2022/10/18 12:22:16;;;;;;;17.90;13.80;;;;;;;19.78;67.45;100718.66;127086;1278;107270;-70
2022/10/18 12:25:22;;;;;;;16.60;13.20;;;;;;;19.78;67.30;100716.79;126819;1284;108516;-70
2022/10/18 12:28:37;;;;;;;16.20;12.50;;;;;;;19.77;67.27;100717.61;126803;1286;107518;-70
2022/10/18 12:31:46;;;;;;;17.90;13.90;;;;;;;19.76;67.22;100713.40;127131;1285;106184;-70
2022/10/18 12:34:58;;;;;;;15.30;13.10;;;;;;;19.74;67.32;100713.61;127297;1279;107363;-71
2022/10/18 12:38:19;;;;;;;16.40;12.90;;;;;;;19.72;67.19;100707.91;126697;1285;108012;-70
2022/10/18 12:41:28;;;;;;;15.10;12.70;;;;;;;19.71;67.32;100702.45;126761;1279;108064;-71
2022/10/18 12:44:35;;;;;;;15.30;12.80;;;;;;;19.71;67.45;100702.95;126940;1280;107940;-70
2022/10/18 12:47:41;;;;;;;15.10;12.70;;;;;;;19.69;67.29;100695.72;127209;1279;108078;-70
2022/10/18 12:50:56;;;;;;;17.30;12.50;;;;;;;19.68;67.13;100692.92;126982;1276;108042;-70
2022/10/18 12:54:12;;;;;;;16.80;12.30;;;;;;;19.64;67.14;100687.30;126729;1279;108657;-70
2022/10/18 12:57:24;;;;;;;19.30;13.40;;;;;;;19.62;67.22;100684.41;127111;1278;107382;-70
2022/10/18 13:00:54;;;;;;;15.50;12.10;;;;;;;19.59;67.31;100682.94;126879;1286;106402;-72
2022/10/18 13:04:00;;;;;;;43.70;33.10;;;;;;;19.58;67.23;100674.77;126849;1279;107190;-69
2022/10/18 13:07:21;;;;;;;28.90;21.50;;;;;;;19.59;67.26;100664.20;126812;1280;108370;-72
2022/10/18 13:10:37;;;;;;;19.80;15.00;;;;;;;19.62;67.26;100655.46;126931;1270;107942;-70
2022/10/18 13:14:04;;;;;;;16.90;13.80;;;;;;;19.63;67.31;100652.39;126704;1280;107372;-71
2022/10/18 13:17:27;;;;;;;15.30;13.50;;;;;;;19.63;67.20;100645.69;127028;1286;107417;-71
2022/10/18 13:20:40;;;;;;;17.60;14.10;;;;;;;19.60;67.06;100640.23;127052;1286;107287;-73
2022/10/18 13:24:03;;;;;;;16.00;13.00;;;;;;;19.52;67.17;100636.35;127167;1280;107516;-70
2022/10/18 13:27:29;;;;;;;16.30;12.20;;;;;;;19.47;67.44;100633.01;127206;1286;106252;-71
2022/10/18 13:30:48;;;;;;;15.80;12.30;;;;;;;19.42;67.35;100624.38;127070;1279;107301;-72
2022/10/18 13:33:54;;;;;;;16.10;13.10;;;;;;;19.40;67.16;100622.77;126991;1278;105969;-70
2022/10/18 13:37:02;;;;;;;15.90;13.60;;;;;;;19.35;67.10;100619.35;126981;1280;107246;-70
2022/10/18 13:40:25;;;;;;;18.20;14.90;;;;;;;19.31;67.21;100612.66;126946;1286;107543;-71
2022/10/18 13:44:18;;;;;;;17.40;15.00;;;;;;;19.26;67.36;100610.62;127054;1279;107552;-70
2022/10/18 13:47:40;;;;;;;15.20;12.70;;;;;;;19.19;67.45;100602.67;126531;1292;107512;-72
2022/10/18 13:50:46;;;;;;;;;;;;;;;19.18;67.56;100602.46;126770;1291;108678;-73
2022/10/18 13:53:58;;;;;;;15.10;12.00;;;;;;;19.22;67.54;100595.11;127146;1285;107539;-72
2022/10/18 13:57:17;;;;;;;13.50;12.00;;;;;;;19.27;67.49;100583.85;127268;1278;107333;-72
2022/10/18 14:00:46;;;;;;;15.90;12.00;;;;;;;19.29;67.31;100580.69;127365;1278;108437;-71
2022/10/18 14:04:26;;;;;;;17.00;12.30;;;;;;;19.29;67.38;100582.11;126880;1278;107495;-71
2022/10/18 14:07:34;;;;;;;14.40;12.10;;;;;;;19.24;67.47;100575.05;126783;1284;107857;-71
2022/10/18 14:10:50;;;;;;;16.20;12.80;;;;;;;19.18;67.69;100582.02;127214;1280;106758;-73
2022/10/18 14:14:04;;;;;;;17.70;12.00;;;;;;;19.15;67.71;100581.80;127282;1279;107650;-70
2022/10/18 14:17:23;;;;;;;14.80;12.30;;;;;;;19.12;67.84;100578.80;127058;1279;107254;-71